Terminal Aerodrome Forecast
Issued by NWS

Home | Current Version | Previous Version | Text Only | Print | Product List | Glossary On
Versions: 1 2 3 4 5 6 7 8 9 10 11 12 13
000
FTAK31 PAFA 230531
TAFAOM
TAF
PAOM 230531Z 2306/2406 07010KT P6SM FEW050 SCT200
     FM230900 03006KT P6SM SCT200
     FM232000 05010KT P6SM SCT200=

USA.gov is the U.S. government's official web portal to all federal, state and local government web resources and services.